Time;durP1;ratioP1;P1;durP2;ratioP2;P2;SDS_P1;SDS_P2;PMS_P1;PMS_P2;Temp;Humidity;BMP_temperature;BMP_pressure;BME280_temperature;BME280_humidity;BME280_pressure;Samples;Min_cycle;Max_cycle;Signal;HPM_P1;HPM_P2
2024/01/30 00:02:14;;;;;;;;;;;19.90;42.30;;;;;;5085381;28;19920;-55
2024/01/30 00:04:41;;;;;;;;;;;19.80;42.20;;;;;;5077934;28;19924;-56
2024/01/30 00:07:08;;;;;;;;;;;19.80;42.20;;;;;;5053804;28;19920;-55
2024/01/30 00:09:36;;;;;;;;;;;19.80;42.20;;;;;;5056975;28;19920;-56
2024/01/30 00:12:03;;;;;;;;;;;19.80;42.20;;;;;;5073450;28;19920;-56
2024/01/30 00:14:30;;;;;;;;;;;19.80;42.20;;;;;;5062762;28;19920;-56
2024/01/30 00:16:56;;;;;;;;;;;19.80;42.20;;;;;;5054079;28;19977;-53
2024/01/30 00:19:23;;;;;;;;;;;19.80;42.20;;;;;;5055699;28;19978;-52
2024/01/30 00:21:50;;;;;;;;;;;19.80;42.20;;;;;;5069508;28;19927;-56
2024/01/30 00:24:17;;;;;;;;;;;19.80;42.20;;;;;;5077895;28;19920;-58
2024/01/30 00:26:45;;;;;;;;;;;19.80;42.20;;;;;;5051670;28;19921;-55
2024/01/30 00:29:12;;;;;;;;;;;19.80;42.20;;;;;;5071030;28;19974;-53
2024/01/30 00:31:38;;;;;;;;;;;19.80;42.20;;;;;;5078321;28;19978;-56
2024/01/30 00:34:05;;;;;;;;;;;19.80;42.20;;;;;;5075964;28;19924;-55
2024/01/30 00:36:33;;;;;;;;;;;19.80;42.20;;;;;;5061010;28;19924;-57
2024/01/30 00:39:00;;;;;;;;;;;19.80;42.20;;;;;;5059867;28;19931;-57
2024/01/30 00:41:27;;;;;;;;;;;19.80;42.20;;;;;;5063330;28;19924;-55
2024/01/30 00:43:55;;;;;;;;;;;19.80;42.20;;;;;;5082642;28;19932;-56
2024/01/30 00:46:22;;;;;;;;;;;19.80;42.20;;;;;;5059252;28;19931;-56
2024/01/30 00:48:49;;;;;;;;;;;19.80;42.20;;;;;;5059194;28;19927;-56
2024/01/30 00:51:15;;;;;;;;;;;19.80;42.20;;;;;;5054432;28;19920;-54
2024/01/30 00:53:42;;;;;;;;;;;19.80;42.20;;;;;;5060341;28;19920;-55
2024/01/30 00:56:09;;;;;;;;;;;19.80;42.20;;;;;;5059310;28;19943;-56
2024/01/30 00:58:36;;;;;;;;;;;19.80;42.20;;;;;;5060433;28;19920;-55
2024/01/30 01:01:04;;;;;;;;;;;19.80;42.20;;;;;;5060750;28;19920;-54
2024/01/30 01:03:31;;;;;;;;;;;19.80;42.20;;;;;;5060293;28;19924;-55
2024/01/30 01:05:57;;;;;;;;;;;19.80;42.20;;;;;;5057357;28;20077;-53
2024/01/30 01:08:25;;;;;;;;;;;19.80;42.20;;;;;;5059654;28;19920;-57
2024/01/30 01:10:51;;;;;;;;;;;19.80;42.20;;;;;;5078004;28;19925;-55
2024/01/30 01:13:18;;;;;;;;;;;19.80;42.20;;;;;;5075591;28;19921;-56
2024/01/30 01:15:45;;;;;;;;;;;19.80;42.20;;;;;;5057300;28;19920;-55
2024/01/30 01:18:13;;;;;;;;;;;19.80;42.20;;;;;;5056581;28;19920;-56
2024/01/30 01:20:40;;;;;;;;;;;19.80;42.20;;;;;;5058388;28;19920;-56
2024/01/30 01:23:06;;;;;;;;;;;19.80;42.20;;;;;;5075111;28;19920;-55
2024/01/30 01:25:33;;;;;;;;;;;19.80;42.20;;;;;;5056802;28;19927;-57
2024/01/30 01:28:01;;;;;;;;;;;19.80;42.20;;;;;;5069292;28;19958;-56
2024/01/30 01:30:29;;;;;;;;;;;19.80;42.20;;;;;;5068521;28;19920;-56
2024/01/30 01:32:56;;;;;;;;;;;19.80;42.20;;;;;;5054078;28;19924;-55
2024/01/30 01:35:25;;;;;;;;;;;19.80;42.20;;;;;;5070554;28;20227;-52
2024/01/30 01:37:54;;;;;;;;;;;19.80;42.20;;;;;;5063337;28;19925;-55
2024/01/30 01:40:22;;;;;;;;;;;19.80;42.20;;;;;;5057497;28;20289;-54
2024/01/30 01:42:48;;;;;;;;;;;19.80;42.20;;;;;;5075250;28;19927;-56
2024/01/30 01:45:15;;;;;;;;;;;19.80;42.20;;;;;;5057179;28;20010;-56
2024/01/30 01:47:42;;;;;;;;;;;19.80;42.20;;;;;;5056246;28;19925;-54
2024/01/30 01:50:09;;;;;;;;;;;19.80;42.20;;;;;;5046101;28;20003;-56
2024/01/30 01:52:37;;;;;;;;;;;19.80;42.20;;;;;;5049146;28;19920;-54
2024/01/30 01:55:04;;;;;;;;;;;19.80;42.20;;;;;;5074134;28;19925;-52
2024/01/30 01:57:31;;;;;;;;;;;19.70;42.10;;;;;;5074476;28;19970;-53
2024/01/30 01:59:57;;;;;;;;;;;19.80;42.20;;;;;;5052376;28;19921;-54
2024/01/30 02:02:24;;;;;;;;;;;19.80;42.20;;;;;;5070716;28;19932;-50
2024/01/30 02:04:51;;;;;;;;;;;19.70;42.10;;;;;;5300463;22;20003;-52
2024/01/30 02:07:18;;;;;;;;;;;19.70;42.10;;;;;;5035391;28;19919;-56
2024/01/30 02:09:46;;;;;;;;;;;19.70;42.00;;;;;;4983854;28;19925;-53
2024/01/30 02:12:13;;;;;;;;;;;19.70;42.00;;;;;;4979589;28;19975;-51
2024/01/30 02:14:45;;;;;;;;;;;19.70;42.00;;;;;;4991407;28;19974;-54
2024/01/30 02:17:12;;;;;;;;;;;19.70;42.10;;;;;;5009352;28;19930;-53
2024/01/30 02:19:38;;;;;;;;;;;19.70;42.00;;;;;;4992608;28;19926;-53
2024/01/30 02:22:06;;;;;;;;;;;19.70;42.00;;;;;;4992760;28;19922;-56
2024/01/30 02:24:33;;;;;;;;;;;19.70;42.00;;;;;;5021947;28;19921;-57
2024/01/30 02:27:00;;;;;;;;;;;19.70;42.00;;;;;;5009208;28;19927;-55
2024/01/30 02:29:27;;;;;;;;;;;19.70;42.00;;;;;;4992439;28;19941;-56
2024/01/30 02:31:53;;;;;;;;;;;19.70;42.00;;;;;;5009138;28;20294;-52
2024/01/30 02:34:21;;;;;;;;;;;19.70;42.10;;;;;;5007361;28;19975;-56
2024/01/30 02:36:47;;;;;;;;;;;19.70;42.10;;;;;;4989357;28;19948;-55
2024/01/30 02:39:15;;;;;;;;;;;19.70;42.10;;;;;;4991732;28;19925;-55
2024/01/30 02:41:42;;;;;;;;;;;19.70;42.00;;;;;;4989496;28;19944;-55
2024/01/30 02:44:09;;;;;;;;;;;19.70;42.00;;;;;;5009529;28;19975;-56
2024/01/30 02:46:35;;;;;;;;;;;19.80;42.20;;;;;;5004338;28;19990;-55
2024/01/30 02:49:02;;;;;;;;;;;19.70;42.00;;;;;;4996170;28;19947;-55
2024/01/30 02:51:29;;;;;;;;;;;19.70;42.00;;;;;;4984302;28;19985;-56
2024/01/30 02:53:56;;;;;;;;;;;19.70;42.10;;;;;;4992039;28;20222;-51
2024/01/30 02:56:24;;;;;;;;;;;19.70;42.10;;;;;;5008783;28;19922;-54
2024/01/30 02:58:51;;;;;;;;;;;19.70;42.10;;;;;;4997126;28;19929;-55
2024/01/30 03:01:18;;;;;;;;;;;19.70;42.10;;;;;;4988975;28;19971;-54
2024/01/30 03:03:44;;;;;;;;;;;19.70;42.10;;;;;;4993333;28;19921;-56
2024/01/30 03:06:11;;;;;;;;;;;19.70;42.10;;;;;;4988183;28;19933;-55
2024/01/30 03:08:38;;;;;;;;;;;19.70;42.70;;;;;;5003390;28;19921;-57
2024/01/30 03:11:04;;;;;;;;;;;19.70;42.10;;;;;;4987922;28;19971;-58
2024/01/30 03:13:32;;;;;;;;;;;19.70;42.10;;;;;;4983915;28;19947;-57
2024/01/30 03:15:59;;;;;;;;;;;19.70;42.10;;;;;;5007952;28;20291;-55
2024/01/30 03:18:26;;;;;;;;;;;19.70;42.10;;;;;;4988097;28;19937;-55
2024/01/30 03:20:53;;;;;;;;;;;19.70;42.00;;;;;;4991475;28;19929;-54
2024/01/30 03:23:19;;;;;;;;;;;19.70;42.10;;;;;;4990077;28;19987;-56
2024/01/30 03:25:46;;;;;;;;;;;19.70;42.10;;;;;;4999627;28;19936;-55
2024/01/30 03:28:13;;;;;;;;;;;19.70;42.00;;;;;;4991426;28;19928;-52
2024/01/30 03:30:41;;;;;;;;;;;19.70;42.00;;;;;;4995256;28;19922;-56
2024/01/30 03:33:07;;;;;;;;;;;19.70;42.00;;;;;;4972297;28;19922;-55
2024/01/30 03:35:34;;;;;;;;;;;19.70;42.00;;;;;;4996659;28;19922;-54
2024/01/30 03:38:01;;;;;;;;;;;19.70;42.00;;;;;;4989970;28;20128;-56
2024/01/30 03:40:28;;;;;;;;;;;19.70;42.00;;;;;;4989437;28;19929;-57
2024/01/30 03:42:54;;;;;;;;;;;19.70;42.00;;;;;;4986312;28;19921;-55
2024/01/30 03:45:21;;;;;;;;;;;19.70;42.00;;;;;;4995055;28;19944;-56
2024/01/30 03:47:49;;;;;;;;;;;19.70;42.00;;;;;;5007445;28;19921;-55
2024/01/30 03:50:16;;;;;;;;;;;19.70;41.90;;;;;;5000665;28;19930;-54
2024/01/30 03:52:43;;;;;;;;;;;19.70;41.90;;;;;;5001093;28;19925;-55
2024/01/30 03:55:09;;;;;;;;;;;19.70;41.90;;;;;;4986125;28;19936;-54
2024/01/30 03:57:36;;;;;;;;;;;19.70;41.90;;;;;;4997765;28;19921;-54
2024/01/30 04:00:04;;;;;;;;;;;19.70;41.90;;;;;;4995136;28;19974;-54
2024/01/30 04:02:31;;;;;;;;;;;19.70;41.90;;;;;;4991521;28;19929;-53
2024/01/30 04:04:59;;;;;;;;;;;19.70;41.90;;;;;;4990067;28;19941;-56
2024/01/30 04:07:26;;;;;;;;;;;19.70;41.90;;;;;;5008490;28;20040;-55
2024/01/30 04:09:53;;;;;;;;;;;19.70;41.90;;;;;;4990953;28;19921;-53
2024/01/30 04:12:19;;;;;;;;;;;19.70;41.90;;;;;;4989753;28;19929;-58
2024/01/30 04:14:47;;;;;;;;;;;19.70;41.90;;;;;;5007787;28;19970;-55
2024/01/30 04:17:13;;;;;;;;;;;19.70;41.90;;;;;;5007409;28;19967;-54
2024/01/30 04:19:40;;;;;;;;;;;19.70;41.90;;;;;;4991070;28;19929;-54
2024/01/30 04:22:08;;;;;;;;;;;19.70;41.90;;;;;;4974668;28;19922;-52
2024/01/30 04:24:35;;;;;;;;;;;19.70;41.90;;;;;;4991104;28;19929;-56
2024/01/30 04:27:02;;;;;;;;;;;19.70;41.90;;;;;;4990566;28;19939;-52
2024/01/30 04:29:29;;;;;;;;;;;19.70;41.90;;;;;;4993211;28;19921;-57
2024/01/30 04:31:55;;;;;;;;;;;19.70;41.90;;;;;;4992529;28;19986;-53
2024/01/30 04:34:22;;;;;;;;;;;19.70;41.90;;;;;;4999004;28;19951;-52
2024/01/30 04:36:49;;;;;;;;;;;19.70;41.90;;;;;;4993085;28;19921;-52
2024/01/30 04:39:17;;;;;;;;;;;19.70;41.90;;;;;;5002535;28;19921;-51
2024/01/30 04:41:43;;;;;;;;;;;19.70;41.90;;;;;;4996217;28;19922;-54
2024/01/30 04:44:10;;;;;;;;;;;19.70;41.90;;;;;;4999152;28;19982;-55
2024/01/30 04:46:37;;;;;;;;;;;19.70;41.90;;;;;;4982349;28;19922;-55
2024/01/30 04:49:04;;;;;;;;;;;19.70;41.90;;;;;;4993805;28;19951;-56
2024/01/30 04:51:31;;;;;;;;;;;19.70;41.90;;;;;;4995720;28;20275;-55
2024/01/30 04:53:58;;;;;;;;;;;19.70;41.90;;;;;;4993866;28;19921;-57
2024/01/30 04:56:26;;;;;;;;;;;19.70;41.90;;;;;;4998021;28;20010;-54
2024/01/30 04:58:52;;;;;;;;;;;19.70;41.90;;;;;;4994582;28;19926;-54
2024/01/30 05:01:19;;;;;;;;;;;19.70;41.90;;;;;;4995183;28;19966;-55
2024/01/30 05:03:46;;;;;;;;;;;19.70;41.90;;;;;;4989329;28;19922;-57
2024/01/30 05:06:13;;;;;;;;;;;19.70;41.90;;;;;;5010481;28;19926;-57
2024/01/30 05:08:40;;;;;;;;;;;19.70;41.90;;;;;;5001282;28;19921;-55
2024/01/30 05:11:07;;;;;;;;;;;19.70;41.90;;;;;;4988050;28;19922;-58
2024/01/30 05:13:35;;;;;;;;;;;19.70;41.90;;;;;;4989820;28;19921;-55
2024/01/30 05:16:03;;;;;;;;;;;19.70;41.90;;;;;;4988654;28;19986;-57
2024/01/30 05:18:29;;;;;;;;;;;19.70;41.90;;;;;;4997823;28;20274;-56
2024/01/30 05:20:56;;;;;;;;;;;19.70;41.90;;;;;;5006640;28;19921;-56
2024/01/30 05:23:23;;;;;;;;;;;19.70;41.80;;;;;;4993380;28;19925;-56
2024/01/30 05:25:50;;;;;;;;;;;19.70;41.80;;;;;;5010037;28;19921;-56
2024/01/30 05:28:16;;;;;;;;;;;19.70;41.80;;;;;;5001860;28;19971;-53
2024/01/30 05:30:44;;;;;;;;;;;19.70;41.80;;;;;;5004721;28;19926;-55
2024/01/30 05:33:13;;;;;;;;;;;19.70;41.80;;;;;;4995733;28;19922;-54
2024/01/30 05:35:39;;;;;;;;;;;19.70;41.80;;;;;;4993354;28;19921;-56
2024/01/30 05:38:06;;;;;;;;;;;19.70;41.80;;;;;;4994467;28;19921;-56
2024/01/30 05:40:33;;;;;;;;;;;19.60;41.80;;;;;;5010575;28;19990;-55
2024/01/30 05:43:01;;;;;;;;;;;19.70;41.80;;;;;;5010515;28;19932;-55
2024/01/30 05:45:28;;;;;;;;;;;19.70;41.80;;;;;;4995636;28;19931;-57
2024/01/30 05:47:56;;;;;;;;;;;19.60;41.70;;;;;;4992468;28;20271;-54
2024/01/30 05:50:23;;;;;;;;;;;19.70;41.80;;;;;;5010140;28;19933;-54
2024/01/30 05:52:50;;;;;;;;;;;19.70;41.80;;;;;;4991760;28;19961;-53
2024/01/30 05:55:16;;;;;;;;;;;19.70;41.80;;;;;;5008669;28;19925;-54
2024/01/30 05:57:43;;;;;;;;;;;19.70;41.70;;;;;;5006455;28;19938;-56
2024/01/30 06:00:10;;;;;;;;;;;19.70;41.80;;;;;;5007988;28;19925;-52
2024/01/30 06:02:37;;;;;;;;;;;19.60;41.70;;;;;;5003536;28;19937;-57
2024/01/30 06:05:05;;;;;;;;;;;19.60;41.70;;;;;;5009082;28;19922;-55
2024/01/30 06:07:32;;;;;;;;;;;19.60;41.70;;;;;;4992451;28;19992;-54
2024/01/30 06:10:00;;;;;;;;;;;19.60;41.70;;;;;;4985586;28;19922;-57
2024/01/30 06:12:27;;;;;;;;;;;19.70;41.70;;;;;;4992248;28;19971;-55
2024/01/30 06:14:56;;;;;;;;;;;19.70;41.70;;;;;;5028637;28;19933;-56
2024/01/30 06:17:23;;;;;;;;;;;19.60;41.70;;;;;;4990233;28;19929;-55
2024/01/30 06:19:50;;;;;;;;;;;19.70;41.80;;;;;;4992386;28;19925;-58
2024/01/30 06:22:18;;;;;;;;;;;19.60;41.70;;;;;;4992718;28;19941;-57
2024/01/30 06:24:47;;;;;;;;;;;19.60;41.70;;;;;;4994314;28;19933;-55
2024/01/30 06:27:14;;;;;;;;;;;19.70;41.80;;;;;;4988924;28;19999;-57
2024/01/30 06:29:41;;;;;;;;;;;19.70;42.40;;;;;;5007820;28;20278;-57
2024/01/30 06:32:08;;;;;;;;;;;19.70;41.80;;;;;;4997208;28;20339;-54
2024/01/30 06:34:34;;;;;;;;;;;19.70;41.80;;;;;;5008954;28;19974;-56
2024/01/30 06:37:01;;;;;;;;;;;19.70;41.80;;;;;;4992454;28;19996;-57
2024/01/30 06:39:29;;;;;;;;;;;19.70;41.80;;;;;;4993007;28;19921;-54
2024/01/30 06:41:56;;;;;;;;;;;19.60;41.80;;;;;;4996567;28;19922;-55
2024/01/30 06:44:22;;;;;;;;;;;19.70;42.10;;;;;;4998005;28;19926;-53
2024/01/30 06:46:49;;;;;;;;;;;19.60;41.80;;;;;;4974866;28;19980;-56
2024/01/30 06:49:16;;;;;;;;;;;19.70;41.80;;;;;;4981628;28;19922;-55
2024/01/30 06:51:43;;;;;;;;;;;19.70;41.80;;;;;;5011504;28;19925;-56
2024/01/30 06:54:09;;;;;;;;;;;19.70;41.90;;;;;;4993493;28;19975;-55
2024/01/30 06:56:38;;;;;;;;;;;19.70;41.80;;;;;;4993103;28;19921;-56
2024/01/30 06:59:05;;;;;;;;;;;19.70;41.80;;;;;;5009894;28;19921;-57
2024/01/30 07:01:32;;;;;;;;;;;19.70;41.90;;;;;;4989915;28;19925;-53
2024/01/30 07:03:59;;;;;;;;;;;19.70;41.90;;;;;;4994565;28;19928;-56
2024/01/30 07:06:25;;;;;;;;;;;19.70;41.90;;;;;;4993846;28;19922;-56
2024/01/30 07:08:52;;;;;;;;;;;19.70;41.90;;;;;;4995109;28;19922;-58
2024/01/30 07:11:19;;;;;;;;;;;19.70;41.90;;;;;;4993424;28;19971;-57
2024/01/30 07:13:48;;;;;;;;;;;19.70;41.90;;;;;;4991434;28;19928;-57
2024/01/30 07:16:15;;;;;;;;;;;19.70;41.90;;;;;;5054580;28;20003;-56
2024/01/30 07:18:41;;;;;;;;;;;19.70;41.90;;;;;;4991431;28;20087;-57
2024/01/30 07:21:08;;;;;;;;;;;19.70;41.90;;;;;;5002132;28;19955;-59
2024/01/30 07:23:35;;;;;;;;;;;19.70;41.90;;;;;;4986670;28;19928;-56
2024/01/30 07:26:02;;;;;;;;;;;19.70;41.90;;;;;;5007879;28;19921;-57
2024/01/30 07:28:29;;;;;;;;;;;19.70;41.80;;;;;;4983290;28;20371;-56
2024/01/30 07:30:57;;;;;;;;;;;19.70;41.80;;;;;;4998200;28;19925;-57
2024/01/30 07:33:23;;;;;;;;;;;19.70;41.90;;;;;;5001534;28;19950;-57
2024/01/30 07:35:50;;;;;;;;;;;19.70;41.90;;;;;;5015920;28;19921;-55
2024/01/30 07:38:17;;;;;;;;;;;19.70;41.80;;;;;;5024639;28;19966;-54
2024/01/30 07:40:43;;;;;;;;;;;19.70;41.80;;;;;;4991996;28;19925;-57
2024/01/30 07:43:10;;;;;;;;;;;19.70;41.90;;;;;;4991070;28;19921;-58
2024/01/30 07:45:38;;;;;;;;;;;19.70;41.80;;;;;;4988788;28;19921;-51
2024/01/30 07:48:06;;;;;;;;;;;19.70;41.80;;;;;;4990137;28;19921;-57
2024/01/30 07:50:33;;;;;;;;;;;19.70;41.50;;;;;;4999589;28;19929;-53
2024/01/30 07:53:00;;;;;;;;;;;19.60;41.10;;;;;;4971574;28;19929;-52
2024/01/30 07:55:27;;;;;;;;;;;19.60;40.30;;;;;;4997606;28;19941;-51
2024/01/30 07:57:54;;;;;;;;;;;19.60;40.00;;;;;;5008101;28;19953;-57
2024/01/30 08:00:21;;;;;;;;;;;19.60;39.80;;;;;;5008440;28;19928;-55
2024/01/30 08:02:47;;;;;;;;;;;19.60;39.50;;;;;;4991337;28;19921;-54
2024/01/30 08:05:16;;;;;;;;;;;19.50;39.30;;;;;;4991655;28;19922;-54
2024/01/30 08:07:42;;;;;;;;;;;19.50;39.10;;;;;;4990627;28;19925;-53
2024/01/30 08:10:09;;;;;;;;;;;19.40;39.00;;;;;;4974708;28;19921;-51
2024/01/30 08:12:36;;;;;;;;;;;19.40;39.00;;;;;;4991877;28;19974;-54
2024/01/30 08:15:03;;;;;;;;;;;19.40;39.00;;;;;;4991811;28;20008;-56
2024/01/30 08:17:30;;;;;;;;;;;19.30;38.90;;;;;;4992180;28;20016;-56
2024/01/30 08:19:57;;;;;;;;;;;19.40;39.00;;;;;;4992578;28;19921;-54
2024/01/30 08:22:25;;;;;;;;;;;19.30;38.70;;;;;;4989525;28;19974;-53
2024/01/30 08:24:51;;;;;;;;;;;19.30;38.70;;;;;;5007676;28;19971;-53
2024/01/30 08:27:18;;;;;;;;;;;19.30;38.60;;;;;;4996855;28;20333;-50
2024/01/30 08:29:45;;;;;;;;;;;19.20;38.20;;;;;;4992324;28;19966;-50
2024/01/30 08:32:12;;;;;;;;;;;19.20;38.30;;;;;;5007658;28;19975;-52
2024/01/30 08:34:38;;;;;;;;;;;19.20;38.40;;;;;;4993289;28;19971;-52
2024/01/30 08:37:05;;;;;;;;;;;19.20;38.50;;;;;;4989325;28;19921;-57
2024/01/30 08:39:34;;;;;;;;;;;19.20;38.40;;;;;;4989088;28;19921;-53
2024/01/30 08:42:01;;;;;;;;;;;19.20;38.40;;;;;;4990490;28;19926;-54
2024/01/30 08:44:28;;;;;;;;;;;19.20;38.20;;;;;;5007263;28;19990;-52
2024/01/30 08:46:55;;;;;;;;;;;19.10;38.20;;;;;;4987900;28;19930;-52
2024/01/30 08:49:21;;;;;;;;;;;19.10;38.10;;;;;;4993374;28;19974;-50
2024/01/30 08:51:48;;;;;;;;;;;19.10;38.00;;;;;;4990050;28;20316;-52
2024/01/30 08:54:15;;;;;;;;;;;19.00;37.80;;;;;;4990044;28;19952;-54
2024/01/30 08:56:44;;;;;;;;;;;19.00;37.70;;;;;;4990335;28;19957;-53
2024/01/30 08:59:11;;;;;;;;;;;18.90;37.90;;;;;;5007419;28;19925;-51
2024/01/30 09:01:37;;;;;;;;;;;18.90;37.80;;;;;;5007472;28;19925;-54
2024/01/30 09:04:04;;;;;;;;;;;18.80;38.00;;;;;;5007715;28;19925;-51
2024/01/30 09:06:31;;;;;;;;;;;18.80;38.10;;;;;;5007699;28;19922;-50
2024/01/30 09:08:58;;;;;;;;;;;18.80;38.10;;;;;;5007307;28;19983;-52
2024/01/30 09:11:25;;;;;;;;;;;18.80;38.30;;;;;;4988937;28;19929;-53
2024/01/30 09:13:53;;;;;;;;;;;18.70;38.20;;;;;;4994097;28;19921;-51
2024/01/30 09:16:20;;;;;;;;;;;18.70;38.40;;;;;;5009897;28;19928;-50
2024/01/30 09:18:46;;;;;;;;;;;18.70;38.50;;;;;;5010730;28;19928;-49
2024/01/30 09:21:13;;;;;;;;;;;18.70;38.60;;;;;;4993296;28;19928;-53
2024/01/30 09:23:40;;;;;;;;;;;18.70;38.60;;;;;;5010675;28;19922;-51
2024/01/30 09:26:07;;;;;;;;;;;18.70;38.50;;;;;;4994724;28;19929;-56
2024/01/30 09:28:33;;;;;;;;;;;18.80;38.60;;;;;;4993149;28;19925;-53
2024/01/30 09:31:02;;;;;;;;;;;18.80;38.60;;;;;;4994160;28;19925;-52
2024/01/30 09:33:29;;;;;;;;;;;18.70;38.60;;;;;;4993407;28;19928;-57
2024/01/30 09:35:55;;;;;;;;;;;18.80;38.70;;;;;;4996335;28;19976;-53
2024/01/30 09:38:22;;;;;;;;;;;18.80;38.70;;;;;;4992772;28;19922;-52
2024/01/30 09:40:51;;;;;;;;;;;18.70;38.70;;;;;;4993069;28;19921;-54
2024/01/30 09:43:18;;;;;;;;;;;18.80;38.80;;;;;;4993592;28;19921;-53
2024/01/30 09:45:44;;;;;;;;;;;18.80;38.80;;;;;;4991227;28;20271;-54
2024/01/30 09:48:13;;;;;;;;;;;18.80;38.90;;;;;;4996128;28;19925;-52
2024/01/30 09:50:39;;;;;;;;;;;18.80;39.00;;;;;;4993422;28;19933;-54
2024/01/30 09:53:06;;;;;;;;;;;18.80;39.10;;;;;;4994780;28;19921;-53
2024/01/30 09:55:33;;;;;;;;;;;18.80;39.20;;;;;;5008387;28;19921;-57
2024/01/30 09:58:00;;;;;;;;;;;18.80;39.30;;;;;;4993967;28;19933;-57
2024/01/30 10:00:27;;;;;;;;;;;18.80;39.30;;;;;;4994112;28;19925;-54
2024/01/30 10:02:54;;;;;;;;;;;18.90;39.50;;;;;;5010325;28;19921;-55
2024/01/30 10:05:22;;;;;;;;;;;18.90;39.60;;;;;;5009756;28;19922;-53
2024/01/30 10:07:53;;;;;;;;;;;19.00;39.70;;;;;;4996300;28;19966;-54
2024/01/30 10:10:20;;;;;;;;;;;19.00;39.70;;;;;;4992207;28;19934;-52
2024/01/30 10:12:48;;;;;;;;;;;19.00;39.70;;;;;;4993721;28;19991;-49
2024/01/30 10:15:15;;;;;;;;;;;19.00;39.80;;;;;;4993750;28;19922;-54
2024/01/30 10:17:42;;;;;;;;;;;19.10;39.90;;;;;;4992735;28;19926;-52
2024/01/30 10:20:09;;;;;;;;;;;19.10;40.00;;;;;;4994001;28;19925;-55
2024/01/30 10:22:37;;;;;;;;;;;19.10;40.00;;;;;;4979162;28;19972;-56
2024/01/30 10:25:04;;;;;;;;;;;19.20;40.10;;;;;;4991372;28;19928;-55
2024/01/30 10:27:31;;;;;;;;;;;19.20;40.20;;;;;;5009606;28;20359;-52
2024/01/30 10:29:57;;;;;;;;;;;19.20;40.20;;;;;;4993650;28;19929;-54
2024/01/30 10:32:24;;;;;;;;;;;19.20;40.20;;;;;;4999987;28;19945;-51
2024/01/30 10:34:51;;;;;;;;;;;19.20;40.30;;;;;;4988756;28;19928;-56
2024/01/30 10:37:18;;;;;;;;;;;19.30;40.30;;;;;;4989374;28;20320;-57
2024/01/30 10:39:46;;;;;;;;;;;19.30;40.40;;;;;;4990873;28;19948;-57
2024/01/30 10:42:13;;;;;;;;;;;19.30;40.40;;;;;;4991383;28;20638;-53
2024/01/30 10:44:44;;;;;;;;;;;19.30;40.40;;;;;;4990205;28;19941;-57
2024/01/30 10:47:13;;;;;;;;;;;19.30;40.40;;;;;;4993913;28;19922;-55
2024/01/30 10:49:40;;;;;;;;;;;19.30;40.40;;;;;;4992764;28;19922;-51
2024/01/30 10:52:07;;;;;;;;;;;19.30;40.50;;;;;;4973507;28;19926;-54
2024/01/30 10:54:33;;;;;;;;;;;19.40;40.60;;;;;;4992345;28;19922;-54
2024/01/30 10:57:03;;;;;;;;;;;19.40;40.60;;;;;;5009422;28;19922;-53
2024/01/30 10:59:30;;;;;;;;;;;19.40;40.60;;;;;;5009077;28;19921;-52
2024/01/30 11:01:57;;;;;;;;;;;19.40;40.70;;;;;;5008901;28;19939;-51
2024/01/30 11:04:25;;;;;;;;;;;19.40;40.70;;;;;;5000978;28;19929;-54
2024/01/30 11:06:52;;;;;;;;;;;19.40;40.70;;;;;;4990770;28;20009;-52
2024/01/30 11:09:19;;;;;;;;;;;19.50;40.80;;;;;;5005399;28;19933;-52
2024/01/30 11:11:50;;;;;;;;;;;19.40;40.70;;;;;;4993652;28;19970;-53
2024/01/30 11:14:18;;;;;;;;;;;19.50;40.80;;;;;;4993650;28;19932;-50
2024/01/30 11:16:44;;;;;;;;;;;19.50;40.80;;;;;;4992010;28;19925;-54
2024/01/30 11:19:11;;;;;;;;;;;19.50;40.80;;;;;;4993540;28;19926;-52
2024/01/30 11:21:41;;;;;;;;;;;19.50;40.90;;;;;;4991424;28;20363;-56
2024/01/30 11:24:08;;;;;;;;;;;19.50;40.80;;;;;;4986588;28;19964;-53
2024/01/30 11:26:35;;;;;;;;;;;19.50;40.90;;;;;;4991221;28;19921;-54
2024/01/30 11:29:04;;;;;;;;;;;19.50;40.90;;;;;;4992089;28;19956;-54
2024/01/30 11:31:32;;;;;;;;;;;19.50;40.90;;;;;;4991610;28;19957;-53
2024/01/30 11:33:59;;;;;;;;;;;19.50;40.90;;;;;;5009120;28;19943;-56
2024/01/30 11:36:26;;;;;;;;;;;19.50;40.90;;;;;;4991232;28;20378;-53
2024/01/30 11:38:53;;;;;;;;;;;19.60;41.00;;;;;;4994200;28;20340;-57
2024/01/30 11:41:20;;;;;;;;;;;19.50;41.00;;;;;;5008765;28;19922;-51
2024/01/30 11:43:52;;;;;;;;;;;19.50;41.00;;;;;;5008229;28;19925;-55
2024/01/30 11:46:18;;;;;;;;;;;19.60;41.10;;;;;;4985829;28;19922;-56
2024/01/30 11:48:47;;;;;;;;;;;19.60;41.10;;;;;;5007591;28;19943;-54
2024/01/30 11:51:14;;;;;;;;;;;19.60;41.10;;;;;;5025454;28;20003;-51
2024/01/30 11:53:40;;;;;;;;;;;19.60;41.20;;;;;;5008338;28;19925;-56
2024/01/30 11:56:08;;;;;;;;;;;19.60;41.10;;;;;;5007105;28;19929;-51
2024/01/30 11:58:35;;;;;;;;;;;19.60;41.10;;;;;;4987477;28;19963;-56
2024/01/30 12:01:01;;;;;;;;;;;19.60;41.20;;;;;;4998581;28;19922;-55
2024/01/30 12:03:28;;;;;;;;;;;19.60;41.20;;;;;;4990998;28;19971;-51
2024/01/30 12:05:58;;;;;;;;;;;19.60;41.20;;;;;;4989554;28;20010;-53
2024/01/30 12:08:25;;;;;;;;;;;19.60;41.20;;;;;;4979292;28;20000;-57
2024/01/30 12:10:56;;;;;;;;;;;19.60;41.20;;;;;;5008311;28;19986;-51
2024/01/30 12:13:23;;;;;;;;;;;19.60;41.80;;;;;;4989523;28;19960;-59
2024/01/30 12:15:49;;;;;;;;;;;19.60;41.20;;;;;;4992279;28;19929;-53
2024/01/30 12:18:19;;;;;;;;;;;19.60;41.20;;;;;;4990789;28;20378;-55
2024/01/30 12:20:46;;;;;;;;;;;19.60;41.20;;;;;;4990139;28;19921;-50
2024/01/30 12:23:14;;;;;;;;;;;19.60;41.20;;;;;;4998423;28;19921;-52
2024/01/30 12:25:40;;;;;;;;;;;19.60;41.20;;;;;;5002216;28;19959;-52
2024/01/30 12:28:07;;;;;;;;;;;19.60;41.20;;;;;;4983479;28;20415;-54
2024/01/30 12:30:35;;;;;;;;;;;19.60;41.30;;;;;;5004512;28;19997;-52
2024/01/30 12:33:04;;;;;;;;;;;19.60;41.30;;;;;;4984370;28;19926;-56
2024/01/30 12:35:31;;;;;;;;;;;19.60;41.30;;;;;;5004898;28;19921;-51
2024/01/30 12:37:57;;;;;;;;;;;19.70;41.40;;;;;;4990215;28;19998;-51
2024/01/30 12:40:26;;;;;;;;;;;19.70;41.40;;;;;;4995524;28;19970;-53
2024/01/30 12:42:53;;;;;;;;;;;19.70;41.50;;;;;;4982660;28;19951;-52
2024/01/30 12:45:21;;;;;;;;;;;19.70;41.50;;;;;;4990467;28;20065;-56
2024/01/30 12:47:48;;;;;;;;;;;19.70;41.50;;;;;;4991219;28;19931;-55
2024/01/30 12:50:15;;;;;;;;;;;19.70;41.50;;;;;;5011428;28;19925;-50
2024/01/30 12:52:42;;;;;;;;;;;19.70;41.60;;;;;;4994349;28;19921;-49
2024/01/30 12:55:09;;;;;;;;;;;19.70;41.50;;;;;;4993829;28;19925;-53
2024/01/30 12:57:39;;;;;;;;;;;19.70;41.60;;;;;;4993293;28;19925;-53
2024/01/30 13:00:08;;;;;;;;;;;19.80;41.60;;;;;;4993679;28;19925;-56
2024/01/30 13:02:36;;;;;;;;;;;19.70;41.60;;;;;;4991472;28;19921;-52
2024/01/30 13:05:03;;;;;;;;;;;19.80;41.60;;;;;;4993975;28;19928;-51
2024/01/30 13:07:30;;;;;;;;;;;19.80;41.70;;;;;;4993591;28;19929;-54
2024/01/30 13:10:02;;;;;;;;;;;19.80;41.70;;;;;;5010650;28;19926;-53
2024/01/30 13:12:28;;;;;;;;;;;19.80;41.70;;;;;;4993369;28;19926;-56
2024/01/30 13:14:57;;;;;;;;;;;19.80;41.70;;;;;;4990959;28;19970;-59
2024/01/30 13:17:23;;;;;;;;;;;19.80;41.70;;;;;;4993773;28;19922;-55
2024/01/30 13:19:50;;;;;;;;;;;19.80;41.70;;;;;;4993495;28;19925;-58
2024/01/30 13:22:17;;;;;;;;;;;19.80;41.70;;;;;;5010773;28;20049;-53
2024/01/30 13:24:44;;;;;;;;;;;19.80;41.70;;;;;;4993470;28;19968;-52
2024/01/30 13:27:10;;;;;;;;;;;19.80;41.70;;;;;;5010403;28;19967;-55
2024/01/30 13:29:37;;;;;;;;;;;19.80;41.80;;;;;;4993614;28;19986;-56
2024/01/30 13:32:06;;;;;;;;;;;19.80;41.70;;;;;;5010666;28;19943;-55
2024/01/30 13:34:33;;;;;;;;;;;19.80;41.80;;;;;;5010847;28;19922;-51
2024/01/30 13:36:59;;;;;;;;;;;19.80;41.80;;;;;;4993130;28;19921;-55
2024/01/30 13:39:26;;;;;;;;;;;19.80;41.80;;;;;;5009056;28;19926;-55
2024/01/30 13:41:53;;;;;;;;;;;19.80;41.80;;;;;;5009961;28;19929;-55
2024/01/30 13:44:20;;;;;;;;;;;19.90;41.90;;;;;;4993530;28;19966;-56
2024/01/30 13:46:47;;;;;;;;;;;19.80;41.80;;;;;;4993170;28;19929;-55
2024/01/30 13:49:15;;;;;;;;;;;19.80;41.80;;;;;;5010834;28;19922;-56
2024/01/30 13:51:42;;;;;;;;;;;19.80;41.80;;;;;;5009899;28;19921;-57
2024/01/30 13:54:09;;;;;;;;;;;19.80;41.80;;;;;;4993322;28;19932;-55
2024/01/30 13:56:36;;;;;;;;;;;19.80;41.80;;;;;;4990186;28;19960;-53
2024/01/30 13:59:04;;;;;;;;;;;19.90;41.90;;;;;;4993470;28;19925;-52
2024/01/30 14:01:31;;;;;;;;;;;19.90;41.90;;;;;;4992412;28;19921;-54
2024/01/30 14:03:58;;;;;;;;;;;19.90;41.90;;;;;;4992845;28;19925;-55
2024/01/30 14:06:26;;;;;;;;;;;19.80;41.90;;;;;;4992830;28;20286;-52
2024/01/30 14:08:53;;;;;;;;;;;19.80;41.90;;;;;;5009918;28;19925;-56
2024/01/30 14:11:20;;;;;;;;;;;19.90;41.90;;;;;;4992886;28;19928;-54
2024/01/30 14:13:47;;;;;;;;;;;19.80;41.90;;;;;;4992433;28;19936;-56
2024/01/30 14:16:14;;;;;;;;;;;19.90;42.00;;;;;;4992235;28;19921;-52